createdAt,value
2019-05-20T00:00:52.450Z,13.20
2019-05-20T00:03:22.957Z,13.10
2019-05-20T00:05:53.654Z,13.00
2019-05-20T00:08:24.141Z,12.90
2019-05-20T00:10:54.603Z,12.90
2019-05-20T00:13:25.128Z,12.80
2019-05-20T00:15:55.593Z,12.80
2019-05-20T00:18:26.029Z,12.90
2019-05-20T00:20:56.632Z,13.10
2019-05-20T00:23:27.159Z,13.10
2019-05-20T00:25:57.699Z,13.20
2019-05-20T00:28:28.352Z,13.20
2019-05-20T00:30:58.905Z,13.20
2019-05-20T00:33:29.566Z,13.30
2019-05-20T00:36:00.127Z,13.20
2019-05-20T00:38:30.721Z,13.10
2019-05-20T00:41:02.374Z,13.20
2019-05-20T00:43:35.015Z,13.30
2019-05-20T00:46:05.625Z,13.30
2019-05-20T00:48:37.253Z,13.40
2019-05-20T00:51:08.393Z,13.30
2019-05-20T00:53:39.068Z,13.10
2019-05-20T00:56:09.557Z,13.10
2019-05-20T00:58:40.133Z,13.10
2019-05-20T01:01:11.303Z,13.00
2019-05-20T01:03:41.896Z,13.00
2019-05-20T01:06:14.581Z,13.00
2019-05-20T01:08:45.234Z,13.00
2019-05-20T01:11:16.431Z,12.90
2019-05-20T01:13:47.067Z,12.90
2019-05-20T01:16:17.519Z,12.80
2019-05-20T01:18:47.994Z,12.80
2019-05-20T01:21:18.626Z,12.90
2019-05-20T01:23:49.128Z,12.90
2019-05-20T01:26:19.605Z,12.90
2019-05-20T01:28:50.057Z,12.90
2019-05-20T01:31:20.552Z,12.90
2019-05-20T01:33:51.041Z,12.90
2019-05-20T01:36:21.519Z,12.90
2019-05-20T01:38:52.140Z,12.80
2019-05-20T01:41:22.609Z,12.80
2019-05-20T01:43:53.162Z,12.80
2019-05-20T01:46:24.351Z,12.80
2019-05-20T01:48:54.905Z,12.70
2019-05-20T01:51:25.501Z,12.70
2019-05-20T01:53:56.055Z,12.70
2019-05-20T01:56:26.577Z,12.70
2019-05-20T01:58:57.100Z,12.60
2019-05-20T02:01:27.676Z,12.60
2019-05-20T02:03:58.239Z,12.50
2019-05-20T02:06:28.841Z,12.40
2019-05-20T02:08:59.503Z,12.40
2019-05-20T02:11:30.073Z,12.30
2019-05-20T02:14:04.960Z,12.30
2019-05-20T02:16:35.498Z,12.50
2019-05-20T02:19:06.169Z,12.50
2019-05-20T02:21:36.727Z,12.60
2019-05-20T02:24:08.254Z,12.80
2019-05-20T02:26:38.777Z,12.70
2019-05-20T02:29:09.187Z,12.60
2019-05-20T02:31:39.749Z,12.60
2019-05-20T02:34:11.257Z,12.60
2019-05-20T02:36:41.831Z,12.60
2019-05-20T02:39:12.370Z,12.50
2019-05-20T02:41:42.898Z,12.40
2019-05-20T02:44:13.394Z,12.30
2019-05-20T02:46:44.067Z,12.20
2019-05-20T02:49:14.669Z,12.30
2019-05-20T02:51:45.297Z,12.20
2019-05-20T02:54:15.814Z,12.20
2019-05-20T02:56:46.362Z,12.20
2019-05-20T02:59:18.936Z,12.10
2019-05-20T03:01:49.492Z,11.90
2019-05-20T03:04:20.004Z,11.90
2019-05-20T03:06:50.501Z,11.90
2019-05-20T03:09:21.028Z,11.80
2019-05-20T03:11:51.464Z,11.90
2019-05-20T03:14:21.958Z,11.90
2019-05-20T03:16:52.614Z,11.80
2019-05-20T03:19:23.224Z,11.90
2019-05-20T03:21:53.791Z,12.00
2019-05-20T03:24:25.926Z,12.10
2019-05-20T03:26:56.473Z,12.20
2019-05-20T03:29:27.447Z,12.30
2019-05-20T03:31:57.898Z,12.40
2019-05-20T03:34:45.594Z,12.20
2019-05-20T03:37:00.556Z,12.30
2019-05-20T03:39:31.669Z,12.30
2019-05-20T03:42:02.293Z,12.30
2019-05-20T03:44:32.923Z,12.40
2019-05-20T03:47:03.413Z,12.40
2019-05-20T03:49:33.942Z,12.40
2019-05-20T03:52:04.476Z,12.20
2019-05-20T03:54:34.999Z,12.20
2019-05-20T03:57:05.618Z,12.30
2019-05-20T03:59:36.208Z,12.30
2019-05-20T04:02:06.757Z,12.30
2019-05-20T04:04:37.273Z,12.20
2019-05-20T04:07:08.014Z,12.30
2019-05-20T04:09:38.602Z,12.30
2019-05-20T04:12:10.272Z,12.40
2019-05-20T04:14:40.731Z,12.40
2019-05-20T04:17:11.344Z,12.40
2019-05-20T04:19:41.899Z,12.30
2019-05-20T04:22:12.498Z,12.20
2019-05-20T04:24:42.973Z,12.20
2019-05-20T04:27:13.452Z,12.10
2019-05-20T04:29:44.220Z,12.20
2019-05-20T04:32:16.495Z,12.30
2019-05-20T04:34:47.143Z,12.50
2019-05-20T04:37:17.813Z,12.50
2019-05-20T04:39:48.385Z,12.50
2019-05-20T04:42:18.963Z,12.70
2019-05-20T04:44:49.490Z,12.70
2019-05-20T04:47:20.136Z,12.60
2019-05-20T04:49:50.699Z,12.60
2019-05-20T04:52:21.308Z,12.70
2019-05-20T04:54:51.831Z,12.70
2019-05-20T04:57:22.403Z,12.70
2019-05-20T04:59:54.043Z,12.70
2019-05-20T05:02:24.624Z,12.70
2019-05-20T05:04:55.213Z,12.70
2019-05-20T05:07:25.940Z,12.80
2019-05-20T05:09:56.510Z,12.80
2019-05-20T05:12:27.270Z,12.90
2019-05-20T05:14:57.792Z,12.70
2019-05-20T05:17:28.470Z,12.80
2019-05-20T05:19:58.889Z,12.80
2019-05-20T05:22:29.521Z,13.00
2019-05-20T05:25:00.018Z,13.40
2019-05-20T05:27:30.578Z,13.50
2019-05-20T05:30:01.189Z,13.40
2019-05-20T05:32:44.790Z,13.20
2019-05-20T05:35:16.451Z,13.10
2019-05-20T05:37:47.357Z,13.30
2019-05-20T05:40:21.318Z,13.80
2019-05-20T05:42:51.784Z,14.40
2019-05-20T05:45:29.433Z,15.40
2019-05-20T05:48:01.450Z,15.00
2019-05-20T05:50:31.894Z,15.80
2019-05-20T05:53:03.688Z,18.30
2019-05-20T05:55:34.258Z,18.80
2019-05-20T05:58:08.345Z,19.90
2019-05-20T06:00:37.185Z,20.10
2019-05-20T06:03:07.772Z,19.70
2019-05-20T06:05:38.289Z,17.90
2019-05-20T06:08:08.784Z,17.40
2019-05-20T06:10:39.474Z,17.30
2019-05-20T06:13:09.988Z,18.50
2019-05-20T06:15:40.610Z,22.40
2019-05-20T06:18:11.158Z,24.50
2019-05-20T06:20:41.734Z,23.00
2019-05-20T06:23:12.340Z,22.60
2019-05-20T06:25:43.002Z,20.20
2019-05-20T06:28:14.571Z,18.10
2019-05-20T06:30:46.408Z,17.20
2019-05-20T06:33:17.038Z,16.70
2019-05-20T06:35:47.647Z,16.80
2019-05-20T06:38:40.136Z,17.30
2019-05-20T06:41:10.854Z,18.90
2019-05-20T06:43:41.375Z,20.80
2019-05-20T06:46:11.826Z,19.80
2019-05-20T06:48:42.313Z,22.40
2019-05-20T06:51:12.815Z,23.30
2019-05-20T06:53:43.435Z,24.60
2019-05-20T06:56:14.015Z,22.70
2019-05-20T06:58:44.562Z,20.80
2019-05-20T07:01:15.121Z,20.00
2019-05-20T07:03:45.747Z,19.30
2019-05-20T07:06:16.240Z,19.40
2019-05-20T07:08:46.802Z,19.10
2019-05-20T07:11:17.246Z,18.50
2019-05-20T07:13:47.869Z,18.40
2019-05-20T07:16:18.403Z,18.00
2019-05-20T07:18:50.552Z,17.90
2019-05-20T07:21:21.106Z,18.00
2019-05-20T07:23:52.510Z,18.00
2019-05-20T07:26:23.245Z,17.90
2019-05-20T07:28:53.897Z,17.80
2019-05-20T07:31:24.425Z,17.80
2019-05-20T07:33:54.908Z,17.60
2019-05-20T07:36:25.536Z,17.50
2019-05-20T07:38:56.085Z,17.50
2019-05-20T07:41:26.618Z,17.70
2019-05-20T07:43:57.259Z,17.70
2019-05-20T07:46:28.005Z,17.70
2019-05-20T07:48:59.021Z,18.20
2019-05-20T07:51:30.182Z,18.40
2019-05-20T07:54:01.935Z,18.30
2019-05-20T07:56:36.770Z,18.50
2019-05-20T07:59:10.236Z,18.70
2019-05-20T08:01:41.355Z,18.40
2019-05-20T08:04:11.843Z,18.30
2019-05-20T08:06:42.357Z,18.40
2019-05-20T08:09:12.944Z,18.20
2019-05-20T08:11:43.455Z,18.40
2019-05-20T08:14:13.925Z,18.40
2019-05-20T08:16:44.484Z,18.90
2019-05-20T08:19:16.259Z,20.00
2019-05-20T08:21:46.725Z,20.60
2019-05-20T08:24:17.309Z,20.70
2019-05-20T08:26:47.858Z,20.70
2019-05-20T08:29:18.438Z,20.20
2019-05-20T08:31:48.992Z,19.50
2019-05-20T08:34:19.546Z,18.60
2019-05-20T08:36:50.025Z,18.10
2019-05-20T08:39:20.612Z,18.40
2019-05-20T08:41:52.148Z,18.60
2019-05-20T08:44:22.673Z,18.50
2019-05-20T08:46:53.333Z,18.30
2019-05-20T08:49:23.998Z,18.20
2019-05-20T08:51:54.518Z,18.80
2019-05-20T08:54:25.122Z,18.90
2019-05-20T08:56:55.652Z,19.40
2019-05-20T08:59:26.295Z,19.30
2019-05-20T09:01:56.884Z,19.00
2019-05-20T09:04:27.438Z,19.10
2019-05-20T09:06:58.030Z,18.90
2019-05-20T09:09:28.550Z,18.50
2019-05-20T09:11:59.277Z,18.00
2019-05-20T09:14:29.798Z,17.70
2019-05-20T09:17:00.320Z,17.50
2019-05-20T09:19:30.904Z,17.80
2019-05-20T09:22:01.442Z,18.10
2019-05-20T09:24:33.269Z,18.40
2019-05-20T09:27:04.313Z,18.80
2019-05-20T09:29:37.996Z,18.90
2019-05-20T09:32:07.563Z,19.20
2019-05-20T09:34:38.208Z,19.30
2019-05-20T09:37:08.751Z,19.90
2019-05-20T09:39:39.340Z,20.00
2019-05-20T09:42:10.008Z,20.10
2019-05-20T09:44:40.729Z,19.70
2019-05-20T09:47:11.321Z,19.20
2019-05-20T09:49:41.883Z,19.20
2019-05-20T09:52:12.502Z,19.40
2019-05-20T09:54:45.532Z,19.90
2019-05-20T09:57:15.310Z,19.70
2019-05-20T09:59:45.829Z,20.10
2019-05-20T10:02:16.360Z,20.20
2019-05-20T10:04:46.902Z,20.20
2019-05-20T10:07:17.472Z,19.70
2019-05-20T10:09:48.438Z,19.70
2019-05-20T10:12:18.995Z,20.10
2019-05-20T10:14:52.655Z,20.10
2019-05-20T10:17:21.787Z,20.10
2019-05-20T10:19:52.458Z,19.70
2019-05-20T10:22:22.966Z,19.40
2019-05-20T10:24:53.572Z,20.00
2019-05-20T10:27:24.491Z,20.00
2019-05-20T10:29:55.110Z,20.30
2019-05-20T10:32:25.545Z,19.90
2019-05-20T10:34:56.117Z,19.90
2019-05-20T10:37:26.636Z,19.80
2019-05-20T10:39:57.225Z,19.60
2019-05-20T10:42:27.734Z,20.00
2019-05-20T10:44:58.302Z,19.90
2019-05-20T10:47:28.797Z,20.00
2019-05-20T10:49:59.458Z,19.80
2019-05-20T10:52:30.158Z,19.80
2019-05-20T10:55:00.685Z,20.00
2019-05-20T10:57:31.380Z,20.00
2019-05-20T11:00:02.051Z,20.00
2019-05-20T11:02:32.785Z,19.80
2019-05-20T11:05:03.317Z,19.90
2019-05-20T11:07:34.081Z,19.80
2019-05-20T11:10:05.221Z,20.10
2019-05-20T11:12:35.844Z,20.10
2019-05-20T11:15:06.853Z,20.00
2019-05-20T11:17:37.542Z,20.40
2019-05-20T11:20:08.600Z,20.50
2019-05-20T11:22:39.187Z,20.60
2019-05-20T11:25:10.165Z,20.40
2019-05-20T11:27:40.725Z,20.40
2019-05-20T11:30:12.061Z,20.70
2019-05-20T11:32:42.636Z,20.70
2019-05-20T11:35:13.706Z,20.80
2019-05-20T11:37:44.203Z,21.40
2019-05-20T11:40:15.256Z,21.20
2019-05-20T11:42:46.061Z,20.90
2019-05-20T11:45:17.122Z,20.90
2019-05-20T11:47:47.703Z,20.70
2019-05-20T11:50:18.270Z,20.80
2019-05-20T11:52:48.944Z,20.70
2019-05-20T11:55:19.621Z,20.50
2019-05-20T11:57:50.203Z,20.50
2019-05-20T12:00:21.432Z,20.70
2019-05-20T12:02:51.997Z,20.90
2019-05-20T12:05:22.473Z,20.90
2019-05-20T12:07:53.033Z,20.80
2019-05-20T12:10:24.747Z,20.80
2019-05-20T12:12:55.323Z,21.00
2019-05-20T12:15:25.976Z,21.30
2019-05-20T12:17:56.433Z,21.10
2019-05-20T12:20:27.234Z,21.30
2019-05-20T12:22:57.797Z,20.90
2019-05-20T12:25:28.532Z,20.70
2019-05-20T12:27:59.068Z,20.60
2019-05-20T12:30:29.741Z,20.60
2019-05-20T12:33:17.998Z,21.00
2019-05-20T12:35:32.545Z,21.40
2019-05-20T12:38:03.169Z,21.10
2019-05-20T12:40:33.671Z,20.80
2019-05-20T12:43:04.378Z,21.10
2019-05-20T12:45:34.935Z,21.30
2019-05-20T12:48:05.541Z,21.30
2019-05-20T12:50:36.112Z,20.80
2019-05-20T12:53:06.682Z,21.30
2019-05-20T12:55:37.265Z,21.30
2019-05-20T12:58:07.797Z,20.80
2019-05-20T13:00:38.386Z,20.60
2019-05-20T13:03:08.899Z,20.70
2019-05-20T13:05:39.505Z,20.80
2019-05-20T13:08:10.153Z,21.30
2019-05-20T13:10:40.623Z,21.30
2019-05-20T13:13:12.458Z,21.70
2019-05-20T13:15:42.983Z,21.20
2019-05-20T13:18:13.495Z,20.90
2019-05-20T13:20:44.144Z,20.80
2019-05-20T13:23:15.864Z,20.90
2019-05-20T13:25:47.919Z,21.20
2019-05-20T13:28:18.514Z,21.10
2019-05-20T13:30:49.100Z,21.20
2019-05-20T13:33:19.685Z,21.10
2019-05-20T13:35:50.193Z,20.70
2019-05-20T13:38:20.745Z,20.80
2019-05-20T13:40:51.311Z,20.70
2019-05-20T13:43:21.873Z,20.70
2019-05-20T13:45:52.381Z,21.00
2019-05-20T13:48:22.989Z,21.10
2019-05-20T13:50:53.458Z,21.50
2019-05-20T13:53:24.180Z,21.40
2019-05-20T13:55:56.909Z,21.30
2019-05-20T13:58:27.585Z,21.20
2019-05-20T14:00:59.780Z,20.90
2019-05-20T14:03:30.357Z,20.80
2019-05-20T14:06:00.951Z,21.00
2019-05-20T14:08:31.510Z,20.90
2019-05-20T14:11:04.786Z,20.90
2019-05-20T14:13:34.182Z,20.90
2019-05-20T14:16:04.718Z,21.00
2019-05-20T14:18:36.523Z,21.00
2019-05-20T14:21:09.335Z,21.20
2019-05-20T14:23:41.049Z,21.30
2019-05-20T14:26:11.640Z,21.50
2019-05-20T14:28:43.408Z,21.50
2019-05-20T14:31:14.193Z,21.60
2019-05-20T14:33:46.260Z,21.60
2019-05-20T14:36:37.716Z,21.90
2019-05-20T14:38:53.787Z,21.70
2019-05-20T14:41:28.871Z,21.50
2019-05-20T14:43:59.498Z,21.10
2019-05-20T14:46:30.986Z,21.20
2019-05-20T14:49:02.931Z,21.20
2019-05-20T14:51:33.590Z,21.10
2019-05-20T14:54:04.306Z,21.20
2019-05-20T14:56:34.982Z,21.50
2019-05-20T14:59:06.612Z,21.40
2019-05-20T15:01:37.262Z,21.40
2019-05-20T15:04:07.785Z,21.40
2019-05-20T15:06:38.215Z,21.20
2019-05-20T15:09:08.807Z,21.10
2019-05-20T15:11:39.334Z,21.20
2019-05-20T15:14:10.092Z,21.10
2019-05-20T15:16:40.737Z,21.10
2019-05-20T15:19:11.631Z,21.40
2019-05-20T15:21:42.165Z,21.60
2019-05-20T15:24:13.857Z,21.80
2019-05-20T15:26:44.606Z,22.00
2019-05-20T15:29:27.523Z,21.90
2019-05-20T15:31:48.170Z,22.10
2019-05-20T15:34:25.632Z,22.00
2019-05-20T15:36:57.316Z,22.10
2019-05-20T15:39:30.657Z,21.90
2019-05-20T15:42:01.275Z,21.80
2019-05-20T15:44:33.011Z,21.70
2019-05-20T15:47:05.003Z,21.60
2019-05-20T15:49:35.518Z,22.00
2019-05-20T15:52:06.494Z,21.90
2019-05-20T15:54:37.039Z,22.10
2019-05-20T15:57:07.714Z,22.10
2019-05-20T15:59:45.973Z,22.10
2019-05-20T16:02:13.661Z,22.30
2019-05-20T16:04:44.788Z,22.40
2019-05-20T16:07:16.535Z,22.40
2019-05-20T16:09:47.274Z,22.40
2019-05-20T16:12:19.326Z,22.60
2019-05-20T16:14:51.607Z,22.50
2019-05-20T16:17:23.405Z,22.50
2019-05-20T16:19:54.137Z,22.30
2019-05-20T16:22:26.294Z,22.10
2019-05-20T16:24:57.316Z,22.10
2019-05-20T16:27:27.955Z,22.10
2019-05-20T16:30:06.079Z,22.00
2019-05-20T16:32:31.486Z,22.00
2019-05-20T16:35:03.771Z,21.90
2019-05-20T16:37:36.167Z,22.00
2019-05-20T16:40:07.685Z,21.70
2019-05-20T16:42:38.825Z,21.40
2019-05-20T16:45:13.198Z,21.30
2019-05-20T16:47:43.724Z,21.40
2019-05-20T16:50:16.372Z,21.00
2019-05-20T16:52:49.685Z,20.80
2019-05-20T16:55:22.496Z,20.80
2019-05-20T16:57:53.054Z,20.80
2019-05-20T17:00:31.482Z,20.90
2019-05-20T17:02:57.972Z,20.70
2019-05-20T17:05:28.443Z,20.70
2019-05-20T17:07:58.985Z,20.50
2019-05-20T17:10:29.728Z,20.50
2019-05-20T17:13:01.439Z,20.40
2019-05-20T17:15:32.133Z,20.40
2019-05-20T17:18:02.597Z,20.40
2019-05-20T17:20:35.114Z,20.40
2019-05-20T17:23:07.931Z,20.30
2019-05-20T17:25:40.026Z,20.20
2019-05-20T17:28:11.017Z,20.20
2019-05-20T17:30:48.009Z,20.20
2019-05-20T17:33:16.429Z,20.10
2019-05-20T17:35:53.544Z,20.10
2019-05-20T17:38:26.406Z,20.00
2019-05-20T17:40:59.518Z,19.90
2019-05-20T17:43:30.133Z,19.90
2019-05-20T17:46:01.758Z,19.80
2019-05-20T17:48:35.083Z,19.70
2019-05-20T17:51:06.198Z,19.70
2019-05-20T17:53:37.006Z,19.60
2019-05-20T17:56:09.068Z,19.50
2019-05-20T17:58:39.720Z,19.40
2019-05-20T18:01:15.179Z,19.20
2019-05-20T18:03:47.877Z,19.10
2019-05-20T18:06:18.506Z,19.10
2019-05-20T18:08:52.696Z,19.00
2019-05-20T18:11:26.901Z,18.80
2019-05-20T18:13:57.151Z,18.70
2019-05-20T18:16:27.702Z,18.60
2019-05-20T18:18:58.298Z,18.50
2019-05-20T18:21:28.908Z,18.40
2019-05-20T18:24:02.502Z,18.30
2019-05-20T18:26:33.185Z,18.20
2019-05-20T18:29:03.928Z,18.10
2019-05-20T18:31:34.562Z,18.10
2019-05-20T18:34:06.189Z,17.90
2019-05-20T18:36:37.936Z,17.80
2019-05-20T18:39:10.244Z,17.70
2019-05-20T18:41:44.011Z,17.70
2019-05-20T18:44:18.381Z,17.70
2019-05-20T18:46:49.584Z,17.70
2019-05-20T18:49:23.638Z,17.70
2019-05-20T18:51:54.225Z,17.70
2019-05-20T18:54:25.818Z,17.50
2019-05-20T18:56:56.339Z,17.40
2019-05-20T18:59:26.902Z,17.40
2019-05-20T19:02:05.017Z,17.30
2019-05-20T19:04:33.285Z,17.10
2019-05-20T19:07:05.124Z,17.10
2019-05-20T19:09:36.908Z,16.90
2019-05-20T19:12:10.203Z,16.80
2019-05-20T19:14:41.989Z,16.70
2019-05-20T19:17:13.537Z,16.70
2019-05-20T19:19:44.107Z,16.60
2019-05-20T19:22:14.735Z,16.60
2019-05-20T19:24:45.378Z,16.60
2019-05-20T19:27:16.682Z,16.50
2019-05-20T19:29:47.202Z,16.40
2019-05-20T19:32:18.932Z,16.40
2019-05-20T19:34:49.645Z,16.30
2019-05-20T19:37:20.310Z,16.20
2019-05-20T19:39:52.378Z,16.20
2019-05-20T19:42:23.090Z,16.30
2019-05-20T19:44:53.718Z,16.20
2019-05-20T19:47:24.269Z,16.20
2019-05-20T19:49:54.922Z,16.20
2019-05-20T19:52:25.601Z,16.10
2019-05-20T19:54:56.105Z,16.10
2019-05-20T19:57:27.798Z,16.20
2019-05-20T19:59:58.412Z,16.10
2019-05-20T20:02:28.973Z,16.20
2019-05-20T20:04:59.605Z,16.40
2019-05-20T20:07:30.425Z,16.20
2019-05-20T20:10:01.140Z,16.10
2019-05-20T20:12:31.990Z,16.00
2019-05-20T20:15:02.589Z,15.90
2019-05-20T20:17:35.204Z,15.80
2019-05-20T20:20:05.940Z,15.70
2019-05-20T20:22:36.652Z,15.60
2019-05-20T20:25:07.384Z,15.60
2019-05-20T20:27:38.587Z,15.50
2019-05-20T20:30:09.505Z,15.40
2019-05-20T20:32:40.188Z,15.30
2019-05-20T20:35:13.578Z,15.20
2019-05-20T20:37:44.919Z,15.10
2019-05-20T20:40:15.544Z,15.10
2019-05-20T20:42:46.119Z,15.00
2019-05-20T20:45:16.686Z,15.00
2019-05-20T20:47:47.288Z,15.00
2019-05-20T20:50:18.940Z,15.00
2019-05-20T20:52:49.473Z,15.10
2019-05-20T20:55:21.240Z,15.10
2019-05-20T20:57:52.660Z,15.10
2019-05-20T21:00:23.169Z,15.00
2019-05-20T21:02:54.400Z,14.90
2019-05-20T21:05:24.982Z,14.90
2019-05-20T21:07:55.974Z,14.80
2019-05-20T21:10:30.202Z,14.80
2019-05-20T21:13:01.108Z,14.80
2019-05-20T21:15:32.685Z,14.70
2019-05-20T21:18:03.242Z,14.70
2019-05-20T21:20:35.597Z,14.70
2019-05-20T21:23:06.219Z,14.70
2019-05-20T21:25:36.739Z,14.70
2019-05-20T21:28:07.364Z,14.70
2019-05-20T21:30:38.030Z,14.70
2019-05-20T21:33:09.823Z,14.70
2019-05-20T21:35:40.503Z,14.70
2019-05-20T21:38:11.005Z,14.70
2019-05-20T21:40:41.534Z,14.50
2019-05-20T21:43:11.987Z,14.50
2019-05-20T21:45:42.575Z,14.50
2019-05-20T21:48:15.014Z,14.50
2019-05-20T21:50:47.018Z,14.40
2019-05-20T21:53:19.259Z,14.30
2019-05-20T21:55:50.139Z,14.30
2019-05-20T21:58:20.640Z,14.30
2019-05-20T22:00:54.644Z,14.30
2019-05-20T22:03:26.358Z,14.30
2019-05-20T22:05:56.906Z,14.20
2019-05-20T22:08:27.389Z,14.20
2019-05-20T22:10:59.408Z,14.20
2019-05-20T22:13:29.952Z,14.20
2019-05-20T22:16:00.495Z,14.10
2019-05-20T22:18:31.044Z,14.20
2019-05-20T22:21:01.671Z,14.10
2019-05-20T22:23:43.057Z,14.10
2019-05-20T22:26:16.027Z,14.00
2019-05-20T22:28:46.600Z,13.90
2019-05-20T22:31:17.181Z,13.90
2019-05-20T22:33:49.791Z,13.80
2019-05-20T22:36:22.012Z,13.80
2019-05-20T22:38:52.522Z,13.70
2019-05-20T22:41:24.183Z,13.70
2019-05-20T22:43:55.795Z,13.60
2019-05-20T22:46:27.388Z,13.50
2019-05-20T22:49:04.647Z,13.50
2019-05-20T22:51:35.134Z,13.50
2019-05-20T22:54:07.423Z,13.40
2019-05-20T22:56:37.881Z,13.50
2019-05-20T22:59:11.006Z,13.50
2019-05-20T23:01:41.582Z,13.50
2019-05-20T23:04:12.845Z,13.50
2019-05-20T23:06:43.491Z,13.60
2019-05-20T23:09:15.014Z,13.50
2019-05-20T23:11:47.843Z,13.50
2019-05-20T23:14:20.519Z,13.50
2019-05-20T23:16:51.034Z,13.40
2019-05-20T23:19:23.154Z,13.40
2019-05-20T23:21:53.641Z,13.40
2019-05-20T23:24:24.225Z,13.40
2019-05-20T23:26:54.763Z,13.20
2019-05-20T23:29:25.315Z,13.10
2019-05-20T23:31:56.939Z,12.90
2019-05-20T23:34:27.445Z,12.90
2019-05-20T23:36:58.028Z,12.80
2019-05-20T23:39:28.563Z,12.70
2019-05-20T23:41:59.125Z,12.70
2019-05-20T23:44:29.559Z,12.80
2019-05-20T23:47:00.661Z,12.80
2019-05-20T23:49:31.291Z,12.80
2019-05-20T23:52:01.895Z,12.80
2019-05-20T23:54:33.545Z,12.80
2019-05-20T23:57:06.022Z,12.70
2019-05-20T23:59:36.540Z,12.70
